Terminal Aerodrome Forecast
Issued by NWS

Current Version | Previous Version | Graphics & Text | Print | Product List | Glossary On
Versions: 1 2 3 4 5 6 7 8 9 10 11 12 13 14 15 16 17
000
FTUS41 KPBZ 270531
TAFMGW
TAF
KMGW 270531Z 2706/2806 18005KT 5SM -RA OVC050
      TEMPO 2706/2708 2SM RA BR OVC020
     FM271100 19004KT 3SM BR BKN025
     FM271600 20008KT P6SM BKN050
     FM280400 19006KT P6SM VCSH OVC040=

USA.gov is the U.S. government's official web portal to all federal, state and local government web resources and services.